createdAt,value
2023-10-28T00:00:11.470Z,98.78
2023-10-28T00:00:44.225Z,98.31
2023-10-28T00:01:17.259Z,98.36
2023-10-28T00:01:49.009Z,98.07
2023-10-28T00:02:21.563Z,98.35
2023-10-28T00:02:53.276Z,98.39
2023-10-28T00:03:28.183Z,98.43
2023-10-28T00:03:59.926Z,98.14
2023-10-28T00:04:33.292Z,98.35
2023-10-28T00:05:07.142Z,98.26
2023-10-28T00:05:39.012Z,98.41
2023-10-28T00:06:10.780Z,98.33
2023-10-28T00:06:42.481Z,98.34
2023-10-28T00:07:14.165Z,98.43
2023-10-28T00:07:45.871Z,98.30
2023-10-28T00:08:17.631Z,98.05
2023-10-28T00:08:49.290Z,98.33
2023-10-28T00:09:21.435Z,98.60
2023-10-28T00:09:53.097Z,98.10
2023-10-28T00:10:24.980Z,98.11
2023-10-28T00:10:56.904Z,98.06
2023-10-28T00:11:28.802Z,98.23
2023-10-28T00:12:00.436Z,98.01
2023-10-28T00:12:32.152Z,98.01
2023-10-28T00:13:05.953Z,98.26
2023-10-28T00:13:37.848Z,98.00
2023-10-28T00:14:09.566Z,97.78
2023-10-28T00:14:42.018Z,97.92
2023-10-28T00:15:15.031Z,97.78
2023-10-28T00:15:46.694Z,97.56
2023-10-28T00:16:18.453Z,97.67
2023-10-28T00:16:50.440Z,97.75
2023-10-28T00:17:22.232Z,97.58
2023-10-28T00:17:53.948Z,97.57
2023-10-28T00:18:25.718Z,97.13
2023-10-28T00:18:57.417Z,97.17
2023-10-28T00:19:29.838Z,96.90
2023-10-28T00:20:06.543Z,96.72
2023-10-28T00:20:38.555Z,97.26
2023-10-28T00:21:11.017Z,96.49
2023-10-28T00:21:42.996Z,96.35
2023-10-28T00:22:14.733Z,96.51
2023-10-28T00:22:47.707Z,96.64
2023-10-28T00:23:19.736Z,97.01
2023-10-28T00:23:51.385Z,97.19
2023-10-28T00:24:23.533Z,96.76
2023-10-28T00:24:55.334Z,96.63
2023-10-28T00:25:28.507Z,96.81
2023-10-28T00:26:04.869Z,96.55
2023-10-28T00:26:36.855Z,96.51
2023-10-28T00:27:09.615Z,96.55
2023-10-28T00:27:41.915Z,96.98
2023-10-28T00:28:13.623Z,97.10
2023-10-28T00:28:45.330Z,96.46
2023-10-28T00:29:17.079Z,96.68
2023-10-28T00:29:49.769Z,96.72
2023-10-28T00:30:24.787Z,96.90
2023-10-28T00:30:56.497Z,96.53
2023-10-28T00:31:29.759Z,96.85
2023-10-28T00:32:01.602Z,96.94
2023-10-28T00:32:33.517Z,96.97
2023-10-28T00:33:05.256Z,96.62
2023-10-28T00:33:36.918Z,96.54
2023-10-28T00:34:10.086Z,96.68
2023-10-28T00:34:42.214Z,97.06
2023-10-28T00:35:14.008Z,96.93
2023-10-28T00:35:45.652Z,97.23
2023-10-28T00:36:17.376Z,96.76
2023-10-28T00:36:49.070Z,96.69
2023-10-28T00:37:20.743Z,96.95
2023-10-28T00:37:52.893Z,97.10
2023-10-28T00:38:24.617Z,96.82
2023-10-28T00:38:56.588Z,97.11
2023-10-28T00:39:29.346Z,97.45
2023-10-28T00:40:01.073Z,97.50
2023-10-28T00:40:33.066Z,97.12
2023-10-28T00:41:05.005Z,97.05
2023-10-28T00:41:36.747Z,97.40
2023-10-28T00:42:08.610Z,97.41
2023-10-28T00:42:40.475Z,97.61
2023-10-28T00:43:12.364Z,97.39
2023-10-28T00:43:45.122Z,97.47
2023-10-28T00:44:17.058Z,97.46
2023-10-28T00:44:48.836Z,97.50
2023-10-28T00:45:20.695Z,97.56
2023-10-28T00:45:53.005Z,97.52
2023-10-28T00:46:24.846Z,97.77
2023-10-28T00:46:56.570Z,97.62
2023-10-28T00:47:28.660Z,97.74
2023-10-28T00:48:00.577Z,98.00
2023-10-28T00:48:32.340Z,97.92
2023-10-28T00:49:04.263Z,97.88
2023-10-28T00:49:37.237Z,97.90
2023-10-28T00:50:13.823Z,97.75
2023-10-28T00:50:46.207Z,97.97
2023-10-28T00:51:17.962Z,97.90
2023-10-28T00:51:50.278Z,98.09
2023-10-28T00:52:23.275Z,98.09
2023-10-28T00:52:56.014Z,98.19
2023-10-28T00:53:28.478Z,98.31
2023-10-28T00:54:00.873Z,98.22
2023-10-28T00:54:33.941Z,98.21
2023-10-28T00:55:05.909Z,98.25
2023-10-28T00:55:38.107Z,98.32
2023-10-28T00:56:13.139Z,98.21
2023-10-28T00:56:45.063Z,98.54
2023-10-28T00:57:17.721Z,98.73
2023-10-28T00:57:49.537Z,98.40
2023-10-28T00:58:23.899Z,98.22
2023-10-28T00:58:57.242Z,98.13
2023-10-28T00:59:29.409Z,98.17
2023-10-28T01:00:01.754Z,98.25
2023-10-28T01:00:33.752Z,98.45
2023-10-28T01:01:07.335Z,98.31
2023-10-28T01:01:39.709Z,98.08
2023-10-28T01:02:11.984Z,97.91
2023-10-28T01:02:45.846Z,97.93
2023-10-28T01:03:17.818Z,97.56
2023-10-28T01:03:49.539Z,97.94
2023-10-28T01:04:21.993Z,98.02
2023-10-28T01:04:53.811Z,97.87
2023-10-28T01:05:25.674Z,97.95
2023-10-28T01:05:57.955Z,97.82
2023-10-28T01:06:29.791Z,97.77
2023-10-28T01:07:02.172Z,98.17
2023-10-28T01:07:34.573Z,98.17
2023-10-28T01:08:06.298Z,98.27
2023-10-28T01:08:38.055Z,98.17
2023-10-28T01:09:09.893Z,98.08
2023-10-28T01:09:48.483Z,98.01
2023-10-28T01:10:32.501Z,97.92
2023-10-28T01:11:04.456Z,98.39
2023-10-28T01:11:40.487Z,98.12
2023-10-28T01:12:15.024Z,98.20
2023-10-28T01:12:48.405Z,98.17
2023-10-28T01:13:20.262Z,98.27
2023-10-28T01:13:51.944Z,98.24
2023-10-28T01:14:23.678Z,98.57
2023-10-28T01:14:55.358Z,98.58
2023-10-28T01:15:27.645Z,98.92
2023-10-28T01:16:01.105Z,99.46
2023-10-28T01:16:35.165Z,99.61
2023-10-28T01:17:07.086Z,99.41
2023-10-28T01:17:39.141Z,99.49
2023-10-28T01:18:11.603Z,99.81
2023-10-28T01:18:43.539Z,99.72
2023-10-28T01:19:15.245Z,99.85
2023-10-28T01:19:47.162Z,99.72
2023-10-28T01:20:19.490Z,99.82
2023-10-28T01:20:51.161Z,99.99
2023-10-28T01:21:22.858Z,99.99
2023-10-28T01:21:55.526Z,99.99
2023-10-28T01:22:27.915Z,99.99
2023-10-28T01:23:00.433Z,99.99
2023-10-28T01:23:32.791Z,99.99
2023-10-28T01:24:04.689Z,99.99
2023-10-28T01:24:37.065Z,99.99
2023-10-28T01:25:10.388Z,99.99
2023-10-28T01:25:42.265Z,99.99
2023-10-28T01:26:14.046Z,99.99
2023-10-28T01:26:45.712Z,99.99
2023-10-28T01:27:18.556Z,99.99
2023-10-28T01:27:50.775Z,99.99
2023-10-28T01:28:22.506Z,99.99
2023-10-28T01:28:56.333Z,99.99
2023-10-28T01:29:29.303Z,99.99
2023-10-28T01:30:01.249Z,99.99
2023-10-28T01:30:32.977Z,99.99
2023-10-28T01:31:05.328Z,99.99
2023-10-28T01:31:38.350Z,99.99
2023-10-28T01:32:10.561Z,99.99
2023-10-28T01:32:43.090Z,99.99
2023-10-28T01:33:14.915Z,99.99
2023-10-28T01:33:46.916Z,99.99
2023-10-28T01:34:18.692Z,99.99
2023-10-28T01:34:54.159Z,99.99
2023-10-28T01:35:25.853Z,99.99
2023-10-28T01:35:57.581Z,99.99
2023-10-28T01:36:30.483Z,99.99
2023-10-28T01:37:03.956Z,99.99
2023-10-28T01:37:35.732Z,99.99
2023-10-28T01:38:07.508Z,99.99
2023-10-28T01:38:39.268Z,99.99
2023-10-28T01:39:13.551Z,99.99
2023-10-28T01:39:49.833Z,99.99
2023-10-28T01:40:21.583Z,99.99
2023-10-28T01:40:54.020Z,99.99
2023-10-28T01:41:25.706Z,99.99
2023-10-28T01:41:57.415Z,99.99
2023-10-28T01:42:29.058Z,99.99
2023-10-28T01:43:01.091Z,99.99
2023-10-28T01:43:32.801Z,99.99
2023-10-28T01:44:04.881Z,99.99
2023-10-28T01:44:38.127Z,99.99
2023-10-28T01:45:10.945Z,99.99
2023-10-28T01:45:42.749Z,99.99
2023-10-28T01:46:14.570Z,99.99
2023-10-28T01:46:48.107Z,99.99
2023-10-28T01:47:19.883Z,99.99
2023-10-28T01:47:51.911Z,99.99
2023-10-28T01:48:24.205Z,99.99
2023-10-28T01:48:55.828Z,99.99
2023-10-28T01:49:27.471Z,99.99
2023-10-28T01:50:00.292Z,99.99
2023-10-28T01:50:32.103Z,99.99
2023-10-28T01:51:03.996Z,99.99
2023-10-28T01:51:35.866Z,99.99
2023-10-28T01:52:10.519Z,99.99
2023-10-28T01:52:43.805Z,99.99
2023-10-28T01:53:16.051Z,99.99
2023-10-28T01:53:47.743Z,99.99
2023-10-28T01:54:19.532Z,99.99
2023-10-28T01:54:52.034Z,99.99
2023-10-28T01:55:23.746Z,99.99
2023-10-28T01:55:55.942Z,99.99
2023-10-28T01:56:29.426Z,99.99
2023-10-28T01:57:02.091Z,99.99
2023-10-28T01:57:33.728Z,99.99
2023-10-28T01:58:05.401Z,99.99
2023-10-28T01:58:37.138Z,99.99
2023-10-28T01:59:08.895Z,99.99
2023-10-28T01:59:40.645Z,99.99
2023-10-28T02:00:15.363Z,99.99
2023-10-28T02:00:47.040Z,99.99
2023-10-28T02:01:18.718Z,99.99
2023-10-28T02:01:50.484Z,99.99
2023-10-28T02:02:22.181Z,99.99
2023-10-28T02:02:56.328Z,99.99
2023-10-28T02:03:28.207Z,99.99
2023-10-28T02:03:59.993Z,99.99
2023-10-28T02:04:32.956Z,99.99
2023-10-28T02:05:05.048Z,99.99
2023-10-28T02:05:36.727Z,99.99
2023-10-28T02:06:08.577Z,99.99
2023-10-28T02:06:40.207Z,99.99
2023-10-28T02:07:11.865Z,99.99
2023-10-28T02:07:43.880Z,99.99
2023-10-28T02:08:15.575Z,99.99
2023-10-28T02:08:47.217Z,99.99
2023-10-28T02:09:18.955Z,99.99
2023-10-28T02:09:51.002Z,99.99
2023-10-28T02:10:22.771Z,99.99
2023-10-28T02:10:54.491Z,99.99
2023-10-28T02:11:26.567Z,99.99
2023-10-28T02:11:58.290Z,99.99
2023-10-28T02:12:30.127Z,99.99
2023-10-28T02:13:01.804Z,99.99
2023-10-28T02:13:33.674Z,99.99
2023-10-28T02:14:05.366Z,99.99
2023-10-28T02:14:37.432Z,99.99
2023-10-28T02:15:10.144Z,99.99
2023-10-28T02:15:44.267Z,99.99
2023-10-28T02:16:16.001Z,99.99
2023-10-28T02:16:47.728Z,99.99
2023-10-28T02:17:20.361Z,99.99
2023-10-28T02:17:53.687Z,99.99
2023-10-28T02:18:25.507Z,99.99
2023-10-28T02:18:57.250Z,99.99
2023-10-28T02:19:28.885Z,99.99
2023-10-28T02:20:00.595Z,99.99
2023-10-28T02:20:34.354Z,99.99
2023-10-28T02:21:06.028Z,99.99
2023-10-28T02:21:37.780Z,99.99
2023-10-28T02:22:14.057Z,99.99
2023-10-28T02:22:45.960Z,99.99
2023-10-28T02:23:17.660Z,99.99
2023-10-28T02:23:49.366Z,99.99
2023-10-28T02:24:21.040Z,99.99
2023-10-28T02:24:52.776Z,99.99
2023-10-28T02:25:25.114Z,99.99
2023-10-28T02:25:56.967Z,99.99
2023-10-28T02:26:28.592Z,99.99
2023-10-28T02:27:00.412Z,99.99
2023-10-28T02:27:32.123Z,99.99
2023-10-28T02:28:04.241Z,99.99
2023-10-28T02:28:35.930Z,99.99
2023-10-28T02:29:08.326Z,99.99
2023-10-28T02:29:40.140Z,99.99
2023-10-28T02:30:13.258Z,99.99
2023-10-28T02:30:46.028Z,99.99
2023-10-28T02:31:17.710Z,99.99
2023-10-28T02:31:49.965Z,99.99
2023-10-28T02:32:21.838Z,99.99
2023-10-28T02:32:55.509Z,99.99
2023-10-28T02:33:27.331Z,99.99
2023-10-28T02:33:59.112Z,99.99
2023-10-28T02:34:30.820Z,99.99
2023-10-28T02:35:02.830Z,99.99
2023-10-28T02:35:37.559Z,99.99
2023-10-28T02:36:09.672Z,99.99
2023-10-28T02:36:41.350Z,99.99
2023-10-28T02:37:15.680Z,99.99
2023-10-28T02:37:47.865Z,99.99
2023-10-28T02:38:20.544Z,99.99
2023-10-28T02:38:52.348Z,99.99
2023-10-28T02:39:24.033Z,99.99
2023-10-28T02:39:56.019Z,99.99
2023-10-28T02:40:27.878Z,99.99
2023-10-28T02:41:00.069Z,99.99
2023-10-28T02:41:31.854Z,99.99
2023-10-28T02:42:03.668Z,99.99
2023-10-28T02:42:35.891Z,99.99
2023-10-28T02:43:07.580Z,99.99
2023-10-28T02:43:40.901Z,99.99
2023-10-28T02:44:12.651Z,99.99
2023-10-28T02:44:44.337Z,99.99
2023-10-28T02:45:16.122Z,99.99
2023-10-28T02:45:47.853Z,99.99
2023-10-28T02:46:26.277Z,99.99
2023-10-28T02:46:58.081Z,99.99
2023-10-28T02:47:32.682Z,99.99
2023-10-28T02:48:04.712Z,99.99
2023-10-28T02:48:36.464Z,99.99
2023-10-28T02:49:08.176Z,99.99
2023-10-28T02:49:39.963Z,99.99
2023-10-28T02:50:12.524Z,99.99
2023-10-28T02:50:44.698Z,99.99
2023-10-28T02:51:16.458Z,99.99
2023-10-28T02:51:48.284Z,99.99
2023-10-28T02:52:19.911Z,99.99
2023-10-28T02:52:51.704Z,99.99
2023-10-28T02:53:23.516Z,99.99
2023-10-28T02:53:55.181Z,99.99
2023-10-28T02:54:26.939Z,99.99
2023-10-28T02:54:58.787Z,99.99
2023-10-28T02:55:30.494Z,99.99
2023-10-28T02:56:05.587Z,99.99
2023-10-28T02:56:37.631Z,99.99
2023-10-28T02:57:09.601Z,99.99
2023-10-28T02:57:41.897Z,99.99
2023-10-28T02:58:13.652Z,99.99
2023-10-28T02:58:45.308Z,99.99
2023-10-28T02:59:17.053Z,99.99
2023-10-28T02:59:48.768Z,99.99
2023-10-28T03:00:20.519Z,99.99
2023-10-28T03:00:52.166Z,99.99
2023-10-28T03:01:24.529Z,99.99
2023-10-28T03:01:57.092Z,99.99
2023-10-28T03:02:29.024Z,99.99
2023-10-28T03:03:01.300Z,99.99
2023-10-28T03:03:33.425Z,99.99
2023-10-28T03:04:05.349Z,99.99
2023-10-28T03:04:37.058Z,99.99
2023-10-28T03:05:09.212Z,99.99
2023-10-28T03:05:40.894Z,99.99
2023-10-28T03:06:13.101Z,99.99
2023-10-28T03:06:44.843Z,99.99
2023-10-28T03:07:16.578Z,99.99
2023-10-28T03:07:48.285Z,99.99
2023-10-28T03:08:20.539Z,99.99
2023-10-28T03:08:52.249Z,99.99
2023-10-28T03:09:24.013Z,99.99
2023-10-28T03:09:55.747Z,99.99
2023-10-28T03:10:27.442Z,99.99
2023-10-28T03:10:59.163Z,99.99
2023-10-28T03:11:30.926Z,99.99
2023-10-28T03:12:02.858Z,99.99
2023-10-28T03:12:34.551Z,99.99
2023-10-28T03:13:06.239Z,99.99
2023-10-28T03:13:38.044Z,99.99
2023-10-28T03:14:09.737Z,99.99
2023-10-28T03:14:41.596Z,99.99
2023-10-28T03:15:13.951Z,99.99
2023-10-28T03:15:48.002Z,99.99
2023-10-28T03:16:20.063Z,99.99
2023-10-28T03:16:52.429Z,99.99
2023-10-28T03:17:24.147Z,99.99
2023-10-28T03:17:55.854Z,99.99
2023-10-28T03:18:27.557Z,99.99
2023-10-28T03:18:59.296Z,99.99
2023-10-28T03:19:31.008Z,99.99
2023-10-28T03:20:02.781Z,99.99
2023-10-28T03:20:34.583Z,99.99
2023-10-28T03:21:07.476Z,99.99
2023-10-28T03:21:40.404Z,99.99
2023-10-28T03:22:12.084Z,99.99
2023-10-28T03:22:43.851Z,99.99
2023-10-28T03:23:16.492Z,99.99
2023-10-28T03:23:48.202Z,99.99
2023-10-28T03:24:19.883Z,99.99
2023-10-28T03:24:51.535Z,99.99
2023-10-28T03:25:23.218Z,99.99
2023-10-28T03:25:55.108Z,99.99
2023-10-28T03:26:26.796Z,99.99
2023-10-28T03:26:58.435Z,99.99
2023-10-28T03:27:30.660Z,99.99
2023-10-28T03:28:02.395Z,99.99
2023-10-28T03:28:34.088Z,99.99
2023-10-28T03:29:05.859Z,99.99
2023-10-28T03:29:37.557Z,99.99
2023-10-28T03:30:09.711Z,99.99
2023-10-28T03:30:41.702Z,99.99
2023-10-28T03:31:14.033Z,99.99
2023-10-28T03:31:45.969Z,99.99
2023-10-28T03:32:17.910Z,99.99
2023-10-28T03:32:50.339Z,99.99
2023-10-28T03:33:23.375Z,99.99
2023-10-28T03:33:55.592Z,99.99
2023-10-28T03:34:27.407Z,99.99
2023-10-28T03:34:59.095Z,99.99
2023-10-28T03:35:31.041Z,99.99
2023-10-28T03:36:02.797Z,99.99
2023-10-28T03:36:34.543Z,99.99
2023-10-28T03:37:06.242Z,99.99
2023-10-28T03:37:38.922Z,99.99
2023-10-28T03:38:10.752Z,99.99
2023-10-28T03:38:42.644Z,99.99
2023-10-28T03:39:16.483Z,99.99
2023-10-28T03:39:48.360Z,99.99
2023-10-28T03:40:20.172Z,99.99
2023-10-28T03:40:52.020Z,99.99
2023-10-28T03:41:24.206Z,99.99
2023-10-28T03:41:55.935Z,99.99
2023-10-28T03:42:28.584Z,99.99
2023-10-28T03:43:00.274Z,99.99
2023-10-28T03:43:32.254Z,99.99
2023-10-28T03:44:04.028Z,99.99
2023-10-28T03:44:35.848Z,99.99
2023-10-28T03:45:10.581Z,99.99
2023-10-28T03:45:42.310Z,99.99
2023-10-28T03:46:19.647Z,99.99
2023-10-28T03:46:51.583Z,99.99
2023-10-28T03:47:23.298Z,99.99
2023-10-28T03:47:55.199Z,99.99
2023-10-28T03:48:26.996Z,99.99
2023-10-28T03:49:00.171Z,99.99
2023-10-28T03:49:32.115Z,99.99
2023-10-28T03:50:04.258Z,99.99
2023-10-28T03:50:36.640Z,99.99
2023-10-28T03:51:08.305Z,99.99
2023-10-28T03:51:39.937Z,99.99
2023-10-28T03:52:11.655Z,99.99
2023-10-28T03:52:43.445Z,99.99
2023-10-28T03:53:15.419Z,99.99
2023-10-28T03:53:47.158Z,99.99
2023-10-28T03:54:18.879Z,99.99
2023-10-28T03:54:51.261Z,99.99
2023-10-28T03:55:24.404Z,99.99
2023-10-28T03:55:56.149Z,99.99
2023-10-28T03:56:28.170Z,99.99
2023-10-28T03:57:00.455Z,99.99
2023-10-28T03:57:32.145Z,99.99
2023-10-28T03:58:04.074Z,99.99
2023-10-28T03:58:35.897Z,99.99
2023-10-28T03:59:07.615Z,99.99
2023-10-28T03:59:39.433Z,99.99
2023-10-28T04:00:12.751Z,99.99
2023-10-28T04:00:44.518Z,99.99
2023-10-28T04:01:17.259Z,99.99
2023-10-28T04:01:49.041Z,99.99
2023-10-28T04:02:20.762Z,99.99
2023-10-28T04:02:53.057Z,99.99
2023-10-28T04:03:25.308Z,99.99
2023-10-28T04:03:57.308Z,99.99
2023-10-28T04:04:29.305Z,99.99
2023-10-28T04:05:01.089Z,99.99
2023-10-28T04:05:33.080Z,99.99
2023-10-28T04:06:07.528Z,99.99
2023-10-28T04:06:39.672Z,99.99
2023-10-28T04:07:11.487Z,99.99
2023-10-28T04:07:43.192Z,99.99
2023-10-28T04:08:15.095Z,99.99
2023-10-28T04:08:47.137Z,99.99
2023-10-28T04:09:19.937Z,99.99
2023-10-28T04:09:51.636Z,99.99
2023-10-28T04:10:23.479Z,99.99
2023-10-28T04:10:55.191Z,99.99
2023-10-28T04:11:26.952Z,99.99
2023-10-28T04:12:01.350Z,99.99
2023-10-28T04:12:33.582Z,99.99
2023-10-28T04:13:05.438Z,99.99
2023-10-28T04:13:37.226Z,99.99
2023-10-28T04:14:09.231Z,99.99
2023-10-28T04:14:41.225Z,99.99
2023-10-28T04:15:14.364Z,99.99
2023-10-28T04:15:47.797Z,99.99
2023-10-28T04:16:19.827Z,99.99
2023-10-28T04:16:52.078Z,99.99
2023-10-28T04:17:25.755Z,99.99
2023-10-28T04:17:57.754Z,99.99
2023-10-28T04:18:30.310Z,99.99
2023-10-28T04:19:02.117Z,99.99
2023-10-28T04:19:34.471Z,99.99
2023-10-28T04:20:07.510Z,99.99
2023-10-28T04:20:40.682Z,99.99
2023-10-28T04:21:12.398Z,99.99
2023-10-28T04:21:44.086Z,99.99
2023-10-28T04:22:16.440Z,99.99
2023-10-28T04:22:48.225Z,99.99
2023-10-28T04:23:20.007Z,99.99
2023-10-28T04:23:52.665Z,99.99
2023-10-28T04:24:25.343Z,99.99
2023-10-28T04:24:57.098Z,99.99
2023-10-28T04:25:28.736Z,99.99
2023-10-28T04:26:00.548Z,99.99
2023-10-28T04:26:32.237Z,99.99
2023-10-28T04:27:04.049Z,99.99
2023-10-28T04:27:35.952Z,99.99
2023-10-28T04:28:08.673Z,99.99
2023-10-28T04:28:40.294Z,99.99
2023-10-28T04:29:12.191Z,99.99
2023-10-28T04:29:43.875Z,99.99
2023-10-28T04:30:15.537Z,99.99
2023-10-28T04:30:59.949Z,99.99
2023-10-28T04:31:31.676Z,99.99
2023-10-28T04:32:03.485Z,99.99
2023-10-28T04:32:35.264Z,99.99
2023-10-28T04:33:07.017Z,99.99
2023-10-28T04:33:38.783Z,99.99
2023-10-28T04:34:10.470Z,99.99
2023-10-28T04:34:54.550Z,99.99
2023-10-28T04:35:29.213Z,99.99
2023-10-28T04:36:01.177Z,99.99
2023-10-28T04:36:32.970Z,99.99
2023-10-28T04:37:04.795Z,99.99
2023-10-28T04:37:36.490Z,99.99
2023-10-28T04:38:08.225Z,99.99
2023-10-28T04:38:41.578Z,99.99
2023-10-28T04:39:13.273Z,99.99
2023-10-28T04:39:45.163Z,99.99
2023-10-28T04:40:17.165Z,99.99
2023-10-28T04:40:51.282Z,99.99
2023-10-28T04:41:23.090Z,99.99
2023-10-28T04:41:54.971Z,99.99
2023-10-28T04:42:26.670Z,99.99
2023-10-28T04:43:02.404Z,99.99
2023-10-28T04:43:34.119Z,99.99
2023-10-28T04:44:06.167Z,99.99
2023-10-28T04:44:38.027Z,99.99
2023-10-28T04:45:11.435Z,99.99
2023-10-28T04:45:43.949Z,99.99
2023-10-28T04:46:16.846Z,99.99
2023-10-28T04:46:48.675Z,99.99
2023-10-28T04:47:20.327Z,99.99
2023-10-28T04:47:52.210Z,99.99
2023-10-28T04:48:26.873Z,99.99
2023-10-28T04:48:58.996Z,99.99
2023-10-28T04:49:30.909Z,99.99
2023-10-28T04:50:02.845Z,99.99
2023-10-28T04:50:34.625Z,99.99
2023-10-28T04:51:06.784Z,99.99
2023-10-28T04:51:39.239Z,99.99
2023-10-28T04:52:10.940Z,99.99
2023-10-28T04:52:43.265Z,99.99
2023-10-28T04:53:14.983Z,99.99
2023-10-28T04:53:46.774Z,99.99
2023-10-28T04:54:18.917Z,99.99
2023-10-28T04:54:50.792Z,99.99
2023-10-28T04:55:23.295Z,99.99
2023-10-28T04:55:56.350Z,99.99
2023-10-28T04:56:28.742Z,99.99
2023-10-28T04:57:01.352Z,99.99
2023-10-28T04:57:33.116Z,99.99
2023-10-28T04:58:06.789Z,99.99
2023-10-28T04:58:39.396Z,99.99
2023-10-28T04:59:11.537Z,99.99
2023-10-28T04:59:43.293Z,99.99
2023-10-28T05:00:15.289Z,99.99
2023-10-28T05:00:47.013Z,99.99
2023-10-28T05:01:18.790Z,99.99
2023-10-28T05:01:51.823Z,99.99
2023-10-28T05:02:23.939Z,99.99
2023-10-28T05:02:55.694Z,99.99
2023-10-28T05:03:27.405Z,99.99
2023-10-28T05:03:59.384Z,99.99
2023-10-28T05:04:31.049Z,99.99
2023-10-28T05:05:02.765Z,99.99
2023-10-28T05:05:34.487Z,99.99
2023-10-28T05:06:06.494Z,99.99
2023-10-28T05:06:38.394Z,99.99
2023-10-28T05:07:10.072Z,99.99
2023-10-28T05:07:42.266Z,99.99
2023-10-28T05:08:15.172Z,99.99
2023-10-28T05:08:48.976Z,99.99
2023-10-28T05:09:24.325Z,99.99
2023-10-28T05:09:56.495Z,99.99
2023-10-28T05:10:30.803Z,99.99
2023-10-28T05:11:04.697Z,99.99
2023-10-28T05:11:36.405Z,99.99
2023-10-28T05:12:08.322Z,99.99
2023-10-28T05:12:41.568Z,99.99
2023-10-28T05:13:13.486Z,99.99
2023-10-28T05:13:45.159Z,99.99
2023-10-28T05:14:16.859Z,99.99
2023-10-28T05:14:48.719Z,99.99
2023-10-28T05:15:20.581Z,99.99
2023-10-28T05:15:52.341Z,99.99
2023-10-28T05:16:24.821Z,99.99
2023-10-28T05:16:56.715Z,99.99
2023-10-28T05:17:28.477Z,99.99
2023-10-28T05:18:00.235Z,99.99
2023-10-28T05:18:33.035Z,99.99
2023-10-28T05:19:04.984Z,99.99
2023-10-28T05:19:36.611Z,99.99
2023-10-28T05:20:09.806Z,99.99
2023-10-28T05:20:41.708Z,99.99
2023-10-28T05:21:13.370Z,99.99
2023-10-28T05:21:45.040Z,99.99
2023-10-28T05:22:18.518Z,99.99
2023-10-28T05:22:50.283Z,99.99
2023-10-28T05:23:23.591Z,99.99
2023-10-28T05:23:55.418Z,99.99
2023-10-28T05:24:27.102Z,99.99
2023-10-28T05:24:58.760Z,99.99
2023-10-28T05:25:30.484Z,99.99
2023-10-28T05:26:02.249Z,99.99
2023-10-28T05:26:34.065Z,99.99
2023-10-28T05:27:05.874Z,99.99
2023-10-28T05:27:37.680Z,99.99
2023-10-28T05:28:09.464Z,99.99
2023-10-28T05:28:41.191Z,99.99
2023-10-28T05:29:12.950Z,99.99
2023-10-28T05:29:44.684Z,99.99
2023-10-28T05:30:16.483Z,99.99
2023-10-28T05:30:48.280Z,99.99
2023-10-28T05:31:19.932Z,99.99
2023-10-28T05:31:51.731Z,99.99
2023-10-28T05:32:23.492Z,99.99
2023-10-28T05:32:55.178Z,99.99
2023-10-28T05:33:26.828Z,99.99
2023-10-28T05:33:58.478Z,99.99
2023-10-28T05:34:30.179Z,99.99
2023-10-28T05:35:03.569Z,99.99
2023-10-28T05:35:35.258Z,99.99
2023-10-28T05:36:07.552Z,99.99
2023-10-28T05:36:39.344Z,99.99
2023-10-28T05:37:10.959Z,99.99
2023-10-28T05:37:42.654Z,99.99
2023-10-28T05:38:14.341Z,99.99
2023-10-28T05:38:46.112Z,99.99
2023-10-28T05:39:17.863Z,99.99
2023-10-28T05:39:49.653Z,99.99
2023-10-28T05:40:22.203Z,99.99
2023-10-28T05:40:56.016Z,99.99
2023-10-28T05:41:27.722Z,99.99
2023-10-28T05:41:59.574Z,99.99
2023-10-28T05:42:31.239Z,99.99
2023-10-28T05:43:02.931Z,99.99
2023-10-28T05:43:34.592Z,99.99
2023-10-28T05:44:06.335Z,99.99
2023-10-28T05:44:38.670Z,99.99
2023-10-28T05:45:11.678Z,99.99
2023-10-28T05:45:43.433Z,99.99
2023-10-28T05:46:15.242Z,99.99
2023-10-28T05:46:47.127Z,99.99
2023-10-28T05:47:18.891Z,99.99
2023-10-28T05:47:50.765Z,99.99
2023-10-28T05:48:22.523Z,99.99
2023-10-28T05:48:54.182Z,99.99
2023-10-28T05:49:26.105Z,99.99
2023-10-28T05:49:58.686Z,99.99
2023-10-28T05:50:30.364Z,99.99
2023-10-28T05:51:03.912Z,99.99
2023-10-28T05:51:37.950Z,99.99
2023-10-28T05:52:10.653Z,99.99
2023-10-28T05:52:42.460Z,99.99
2023-10-28T05:53:14.158Z,99.99
2023-10-28T05:53:45.917Z,99.99
2023-10-28T05:54:17.686Z,99.99
2023-10-28T05:54:49.921Z,99.99
2023-10-28T05:55:21.610Z,99.99
2023-10-28T05:55:53.692Z,99.99
2023-10-28T05:56:26.287Z,99.99
2023-10-28T05:56:58.892Z,99.99
2023-10-28T05:57:30.696Z,99.99
2023-10-28T05:58:02.410Z,99.99
2023-10-28T05:58:34.110Z,99.99
2023-10-28T05:59:05.757Z,99.99
2023-10-28T05:59:37.516Z,99.99
2023-10-28T06:00:12.595Z,99.99
2023-10-28T06:00:44.304Z,99.99
2023-10-28T06:01:15.948Z,99.99
2023-10-28T06:01:47.749Z,99.99
2023-10-28T06:02:19.538Z,99.99
2023-10-28T06:02:51.341Z,99.99
2023-10-28T06:03:22.973Z,99.99
2023-10-28T06:03:54.688Z,99.99
2023-10-28T06:04:26.506Z,99.99
2023-10-28T06:04:58.184Z,99.99
2023-10-28T06:05:29.891Z,99.99
2023-10-28T06:06:01.781Z,99.99
2023-10-28T06:06:33.593Z,99.99
2023-10-28T06:07:05.375Z,99.99
2023-10-28T06:07:37.069Z,99.99
2023-10-28T06:08:09.573Z,99.99
2023-10-28T06:08:41.350Z,99.99
2023-10-28T06:09:14.886Z,99.99
2023-10-28T06:09:49.220Z,99.99
2023-10-28T06:10:21.006Z,99.99
2023-10-28T06:10:52.741Z,99.99
2023-10-28T06:11:24.982Z,99.99
2023-10-28T06:11:57.936Z,99.99
2023-10-28T06:12:29.594Z,99.99
2023-10-28T06:13:01.492Z,99.99
2023-10-28T06:13:33.245Z,99.99
2023-10-28T06:14:05.145Z,99.99
2023-10-28T06:14:36.854Z,99.99
2023-10-28T06:15:09.532Z,99.99
2023-10-28T06:15:42.783Z,99.99
2023-10-28T06:16:14.589Z,99.99
2023-10-28T06:16:47.557Z,99.99
2023-10-28T06:17:19.455Z,99.99
2023-10-28T06:17:51.276Z,99.99
2023-10-28T06:18:23.032Z,99.99
2023-10-28T06:18:54.728Z,99.99
2023-10-28T06:19:26.491Z,99.99
2023-10-28T06:19:58.288Z,99.99
2023-10-28T06:20:31.723Z,99.99
2023-10-28T06:21:04.469Z,99.99
2023-10-28T06:21:36.412Z,99.99
2023-10-28T06:22:08.950Z,99.99
2023-10-28T06:22:40.825Z,99.99
2023-10-28T06:23:12.934Z,99.99
2023-10-28T06:23:44.723Z,99.99
2023-10-28T06:24:16.402Z,99.99
2023-10-28T06:24:48.074Z,99.99
2023-10-28T06:25:19.788Z,99.99
2023-10-28T06:25:51.527Z,99.99
2023-10-28T06:26:23.282Z,99.99
2023-10-28T06:26:56.218Z,99.99
2023-10-28T06:27:28.068Z,99.99
2023-10-28T06:27:59.724Z,99.99
2023-10-28T06:28:31.467Z,99.99
2023-10-28T06:29:03.819Z,99.99
2023-10-28T06:29:35.781Z,99.99
2023-10-28T06:30:08.828Z,99.99
2023-10-28T06:30:50.495Z,99.99
2023-10-28T06:31:22.171Z,99.99
2023-10-28T06:31:53.916Z,99.99
2023-10-28T06:32:25.830Z,99.99
2023-10-28T06:32:57.614Z,99.99
2023-10-28T06:33:29.464Z,99.99
2023-10-28T06:34:02.084Z,99.99
2023-10-28T06:34:33.997Z,99.99
2023-10-28T06:35:06.486Z,99.99
2023-10-28T06:35:38.195Z,99.99
2023-10-28T06:36:10.152Z,99.99
2023-10-28T06:36:41.832Z,99.99
2023-10-28T06:37:13.548Z,99.99
2023-10-28T06:37:45.198Z,99.99
2023-10-28T06:38:18.967Z,99.99
2023-10-28T06:38:50.988Z,99.99
2023-10-28T06:39:22.930Z,99.99
2023-10-28T06:39:54.610Z,99.99
2023-10-28T06:40:26.749Z,99.99
2023-10-28T06:41:01.207Z,99.99
2023-10-28T06:41:33.078Z,99.99
2023-10-28T06:42:05.453Z,99.99
2023-10-28T06:42:38.525Z,99.99
2023-10-28T06:43:10.477Z,99.99
2023-10-28T06:43:42.115Z,99.99
2023-10-28T06:44:13.765Z,99.99
2023-10-28T06:44:45.473Z,99.99
2023-10-28T06:45:18.964Z,99.99
2023-10-28T06:45:50.806Z,99.99
2023-10-28T06:46:22.543Z,99.99
2023-10-28T06:46:54.480Z,99.99
2023-10-28T06:47:26.212Z,99.99
2023-10-28T06:47:58.034Z,99.99
2023-10-28T06:48:29.756Z,99.99
2023-10-28T06:49:01.438Z,99.99
2023-10-28T06:49:33.126Z,99.99
2023-10-28T06:50:08.111Z,99.99
2023-10-28T06:50:40.076Z,99.99
2023-10-28T06:51:14.027Z,99.99
2023-10-28T06:51:46.557Z,99.99
2023-10-28T06:52:18.255Z,99.99
2023-10-28T06:52:51.879Z,99.99
2023-10-28T06:53:25.025Z,99.99
2023-10-28T06:53:56.720Z,99.99
2023-10-28T06:54:28.361Z,99.99
2023-10-28T06:55:03.783Z,99.99
2023-10-28T06:55:35.713Z,99.99